Details for Austrian at LOWW




Go Back


Latest METAR
Local Time

LOWW 232350Z 34012KT 9999 FEW022 OVC070 M03/M07 Q1020 R88/29//95 NOSIG

24/02/2018, 01:04:36

Description
Results
Austrian Logo
Number of Pilots based at LOWW
0 Pilots Based here
Number of Austrian Flights Departed from LOWW
5 Flights Departed
Number of Austrian Flights Arrived at LOWW
5 Flights Arrived
Number of Austrian Schedules Departing from LOWW
200 Schedules
Number of Austrian Schedules Arriving at LOWW
210 Schedules
Number of Austrian Schedules Departing from LOWW availible today
104 Schedules Today
Number of Austrian Schedules Arriving at LOWW availible today
115 Schedules Today
Average Landing Rate at LOWW
-211 fpm
Austrian Average Landing Rate at LOWW
-355 fpm
Total Fuel Purchased at LOWW by Austrian
19,999.34 kgs / 44,090.54 lbs

Pilots Based at LOWW


Pilot ID
Pilot Name
Pilot Rank
No. of Flights
No. of Flying Hours
There are no pilots assigned to this hub!   Will you be the first?
Content